createdAt,value
2022-12-25T00:05:00.223Z,8.50
2022-12-25T00:15:06.886Z,8.40
2022-12-25T00:25:11.419Z,8.50
2022-12-25T00:35:18.857Z,8.60
2022-12-25T00:45:22.709Z,8.70
2022-12-25T00:55:27.832Z,8.60
2022-12-25T01:05:31.718Z,8.70
2022-12-25T01:15:38.046Z,8.70
2022-12-25T01:25:42.120Z,8.70
2022-12-25T01:35:47.199Z,8.70
2022-12-25T01:45:52.652Z,8.60
2022-12-25T01:56:02.089Z,8.70
2022-12-25T02:06:06.761Z,8.80
2022-12-25T02:16:17.389Z,8.70
2022-12-25T02:26:41.573Z,8.70
2022-12-25T02:36:51.586Z,8.60
2022-12-25T02:47:13.248Z,8.60
2022-12-25T02:57:40.501Z,8.70
2022-12-25T03:07:45.990Z,8.70
2022-12-25T03:17:50.960Z,8.80
2022-12-25T03:27:57.326Z,8.80
2022-12-25T03:38:37.964Z,8.80
2022-12-25T03:49:04.973Z,8.90
2022-12-25T03:59:35.912Z,8.80
2022-12-25T04:10:02.324Z,8.90
2022-12-25T04:20:27.061Z,8.90
2022-12-25T04:30:48.457Z,8.90
2022-12-25T04:40:53.493Z,8.80
2022-12-25T04:50:57.275Z,8.80
2022-12-25T05:01:03.700Z,8.80
2022-12-25T05:11:10.221Z,8.90
2022-12-25T05:21:15.584Z,8.90
2022-12-25T05:31:19.817Z,8.90
2022-12-25T05:41:27.891Z,8.90
2022-12-25T05:51:35.975Z,8.90
2022-12-25T06:01:40.959Z,8.80
2022-12-25T06:11:44.844Z,8.80
2022-12-25T06:21:53.973Z,8.80
2022-12-25T06:31:59.005Z,8.90
2022-12-25T06:42:04.279Z,8.90
2022-12-25T06:52:08.392Z,8.90
2022-12-25T07:02:19.953Z,9.00
2022-12-25T07:12:24.909Z,9.00
2022-12-25T07:22:31.117Z,9.00
2022-12-25T07:32:34.823Z,8.90
2022-12-25T07:42:39.790Z,9.00
2022-12-25T07:52:44.005Z,9.00
2022-12-25T08:02:50.687Z,9.00
2022-12-25T08:12:57.142Z,9.10
2022-12-25T08:23:02.221Z,9.10
2022-12-25T08:33:06.434Z,9.20
2022-12-25T08:43:11.617Z,9.50
2022-12-25T08:53:15.597Z,9.70
2022-12-25T09:03:21.207Z,9.70
2022-12-25T09:13:25.157Z,9.70
2022-12-25T09:23:30.823Z,9.70
2022-12-25T09:33:36.618Z,9.90
2022-12-25T09:43:48.115Z,10.00
2022-12-25T09:54:00.460Z,10.00
2022-12-25T10:04:34.796Z,10.00
2022-12-25T10:15:00.252Z,10.10
2022-12-25T10:25:07.890Z,10.10
2022-12-25T10:35:13.955Z,10.30
2022-12-25T10:45:19.180Z,10.70
2022-12-25T10:55:28.446Z,10.80
2022-12-25T11:05:36.835Z,10.80
2022-12-25T11:15:44.126Z,11.00
2022-12-25T11:25:58.058Z,11.20
2022-12-25T11:36:09.360Z,11.50
2022-12-25T11:46:21.873Z,11.80
2022-12-25T11:56:28.616Z,11.60
2022-12-25T12:06:46.189Z,11.70
2022-12-25T12:16:50.441Z,11.90
2022-12-25T12:27:07.498Z,12.00
2022-12-25T12:37:24.602Z,11.80
2022-12-25T12:47:37.959Z,11.80
2022-12-25T12:57:42.998Z,11.80
2022-12-25T13:07:58.751Z,11.80
2022-12-25T13:18:07.097Z,11.70
2022-12-25T13:28:16.394Z,11.70
2022-12-25T13:38:29.131Z,11.70
2022-12-25T13:48:34.499Z,11.60
2022-12-25T13:58:39.581Z,11.60
2022-12-25T14:08:45.263Z,11.50
2022-12-25T14:18:57.528Z,11.60
2022-12-25T14:29:16.819Z,11.40
2022-12-25T14:39:31.769Z,11.20
2022-12-25T14:49:38.600Z,10.90
2022-12-25T14:59:42.278Z,10.90
2022-12-25T15:09:47.385Z,10.80
2022-12-25T15:19:51.258Z,10.70
2022-12-25T15:30:11.730Z,10.50
2022-12-25T15:40:17.260Z,10.50
2022-12-25T15:50:22.807Z,10.40
2022-12-25T16:00:26.986Z,10.10
2022-12-25T16:10:38.204Z,10.00
2022-12-25T16:20:42.605Z,9.90
2022-12-25T16:30:47.775Z,11.60
2022-12-25T16:40:57.844Z,9.90
2022-12-25T16:51:03.007Z,9.80
2022-12-25T17:01:08.401Z,9.70
2022-12-25T17:11:14.737Z,9.70
2022-12-25T17:21:18.411Z,9.50
2022-12-25T17:31:24.515Z,9.30
2022-12-25T17:41:29.103Z,9.20
2022-12-25T17:51:35.338Z,9.20
2022-12-25T18:01:40.537Z,9.30
2022-12-25T18:11:45.923Z,9.30
2022-12-25T18:21:51.087Z,9.30
2022-12-25T18:31:56.167Z,9.30
2022-12-25T18:42:17.565Z,9.30
2022-12-25T18:52:49.020Z,9.30
2022-12-25T19:02:46.747Z,9.40
2022-12-25T19:12:51.797Z,9.30
2022-12-25T19:22:55.533Z,9.20
2022-12-25T19:33:00.585Z,9.10
2022-12-25T19:43:04.373Z,9.10
2022-12-25T19:53:09.395Z,9.00
2022-12-25T20:03:13.233Z,9.00
2022-12-25T20:13:19.016Z,9.00
2022-12-25T20:23:22.895Z,9.10
2022-12-25T20:33:27.925Z,9.20
2022-12-25T20:43:32.585Z,9.30
2022-12-25T20:53:38.324Z,9.30
2022-12-25T21:03:42.789Z,9.40
2022-12-25T21:13:48.819Z,9.70
2022-12-25T21:23:52.789Z,10.40
2022-12-25T21:33:59.309Z,10.60
2022-12-25T21:44:03.093Z,10.90
2022-12-25T21:54:08.883Z,11.10
2022-12-25T22:04:14.983Z,11.20
2022-12-25T22:14:52.397Z,11.30
2022-12-25T22:25:00.133Z,11.30
2022-12-25T22:35:06.445Z,11.40
2022-12-25T22:45:12.450Z,11.50
2022-12-25T22:55:20.453Z,11.60
2022-12-25T23:05:24.731Z,11.60
2022-12-25T23:15:30.021Z,11.70
2022-12-25T23:25:53.671Z,11.60
2022-12-25T23:35:58.801Z,11.70
2022-12-25T23:46:02.640Z,11.70
2022-12-25T23:56:10.365Z,11.70
